Time;durP1;ratioP1;P1;durP2;ratioP2;P2;SDS_P1;SDS_P2;PMS_P1;PMS_P2;Temp;Humidity;BMP_temperature;BMP_pressure;BME280_temperature;BME280_humidity;BME280_pressure;Samples;Min_cycle;Max_cycle;Signal;HPM_P1;HPM_P2
2022/01/27 00:04:17;;;;;;;62.33;34.53;;;;;;;;;;4999343;28;20591;-48
2022/01/27 00:06:43;;;;;;;59.33;34.20;;;;;;;;;;5000963;28;20148;-48
2022/01/27 00:12:01;;;;;;;62.30;36.05;;;;;;;;;;4979075;28;20042;-49
2022/01/27 00:14:27;;;;;;;67.25;36.80;;;;;;;;;;4963381;28;20170;-49
2022/01/27 00:16:58;;;;;;;67.72;36.65;;;;;;;;;;4963256;28;20072;-51
2022/01/27 00:19:25;;;;;;;61.88;34.92;;;;;;;;;;4963493;28;20556;-50
2022/01/27 00:21:51;;;;;;;104.97;56.08;;;;;;;;;;4963417;28;20650;-48
2022/01/27 00:24:17;;;;;;;70.57;37.85;;;;;;;;;;4962394;28;20046;-50
2022/01/27 00:26:44;;;;;;;59.38;34.92;;;;;;;;;;4963584;28;20030;-48
2022/01/27 00:29:10;;;;;;;60.00;34.92;;;;;;;;;;4963190;28;20455;-48
2022/01/27 00:31:36;;;;;;;70.60;40.75;;;;;;;;;;4963146;28;20039;-49
2022/01/27 00:34:04;;;;;;;66.97;38.35;;;;;;;;;;4962922;28;20030;-49
2022/01/27 00:36:31;;;;;;;63.42;37.03;;;;;;;;;;4963466;28;20177;-48
2022/01/27 00:38:57;;;;;;;67.78;38.28;;;;;;;;;;4963016;28;20284;-48
2022/01/27 00:41:23;;;;;;;63.22;37.83;;;;;;;;;;4963077;28;20379;-49
2022/01/27 00:43:50;;;;;;;60.67;34.30;;;;;;;;;;4962929;28;20561;-49
2022/01/27 00:46:21;;;;;;;70.03;39.05;;;;;;;;;;4962448;28;20080;-48
2022/01/27 00:48:48;;;;;;;64.18;35.65;;;;;;;;;;4984203;28;20032;-48
2022/01/27 00:51:20;;;;;;;62.03;35.20;;;;;;;;;;5019588;28;20036;-48
2022/01/27 00:53:53;;;;;;;59.38;34.05;;;;;;;;;;5019582;28;20392;-48
2022/01/27 00:56:26;;;;;;;62.45;34.75;;;;;;;;;;5019032;28;20071;-48
2022/01/27 00:59:15;;;;;;;61.22;35.88;;;;;;;;;;5019399;28;20049;-47
2022/01/27 01:01:49;;;;;;;64.82;37.08;;;;;;;;;;5019695;28;20921;-48
2022/01/27 01:04:23;;;;;;;76.13;43.15;;;;;;;;;;5019789;28;20029;-47
2022/01/27 01:06:50;;;;;;;64.38;35.90;;;;;;;;;;5019725;28;20670;-48
2022/01/27 01:14:56;;;;;;;60.38;34.88;;;;;;;;;;5018877;28;20855;-48
2022/01/27 01:17:33;;;;;;;66.22;38.05;;;;;;;;;;5018269;28;20029;-48
2022/01/27 01:20:23;;;;;;;63.38;35.83;;;;;;;;;;5019353;28;20028;-48
2022/01/27 01:31:30;;;;;;;67.40;38.50;;;;;;;;;;5019088;28;20047;-49
2022/01/27 01:37:03;;;;;;;68.93;36.88;;;;;;;;;;5031357;28;21510;-48
2022/01/27 01:39:34;;;;;;;69.88;37.58;;;;;;;;;;5031626;28;20032;-47
2022/01/27 01:42:04;;;;;;;64.68;35.72;;;;;;;;;;5031763;28;20041;-48
2022/01/27 01:44:30;;;;;;;60.60;34.65;;;;;;;;;;5024033;28;20204;-48
2022/01/27 01:46:56;;;;;;;62.88;36.65;;;;;;;;;;5031683;28;20032;-48
2022/01/27 01:49:26;;;;;;;75.38;42.47;;;;;;;;;;5031663;28;20664;-48
2022/01/27 01:51:53;;;;;;;57.85;34.40;;;;;;;;;;5068716;28;20028;-49
2022/01/27 01:54:19;;;;;;;82.03;45.17;;;;;;;;;;5070955;28;20044;-50
2022/01/27 01:56:47;;;;;;;63.75;36.47;;;;;;;;;;5071199;28;20040;-49
2022/01/27 01:59:13;;;;;;;57.15;32.55;;;;;;;;;;5070326;28;20480;-48
2022/01/27 02:01:40;;;;;;;60.45;34.30;;;;;;;;;;5070538;28;20102;-49
2022/01/27 02:04:09;;;;;;;55.85;32.88;;;;;;;;;;5071123;28;20465;-48
2022/01/27 02:06:41;;;;;;;54.17;32.35;;;;;;;;;;5068778;28;20128;-48
2022/01/27 02:09:16;;;;;;;56.35;33.40;;;;;;;;;;5071040;28;20136;-49
2022/01/27 02:19:58;;;;;;;58.90;34.53;;;;;;;;;;5053219;28;20040;-49
2022/01/27 02:22:25;;;;;;;62.47;35.38;;;;;;;;;;5053079;28;20051;-49
2022/01/27 02:24:51;;;;;;;70.72;38.28;;;;;;;;;;5053059;28;20025;-50
2022/01/27 02:27:19;;;;;;;68.47;39.60;;;;;;;;;;5053080;28;20027;-50
2022/01/27 02:29:45;;;;;;;63.67;36.05;;;;;;;;;;5051958;28;20095;-49
2022/01/27 02:32:13;;;;;;;61.90;34.95;;;;;;;;;;5052993;28;20021;-49
2022/01/27 02:34:39;;;;;;;53.55;32.85;;;;;;;;;;5052686;28;20084;-48
2022/01/27 02:37:05;;;;;;;55.45;32.22;;;;;;;;;;5052668;28;20013;-49
2022/01/27 02:39:31;;;;;;;58.08;34.38;;;;;;;;;;5052857;28;20021;-48
2022/01/27 02:42:16;;;;;;;66.55;39.65;;;;;;;;;;5052918;28;20021;-48
2022/01/27 02:44:48;;;;;;;50.92;31.83;;;;;;;;;;5052913;28;20473;-49
2022/01/27 02:47:15;;;;;;;58.60;34.28;;;;;;;;;;5052835;28;20024;-49
2022/01/27 02:49:41;;;;;;;56.78;32.60;;;;;;;;;;5052806;28;20021;-48
2022/01/27 02:52:07;;;;;;;52.47;31.00;;;;;;;;;;5052985;28;20047;-48
2022/01/27 02:54:38;;;;;;;58.13;32.92;;;;;;;;;;5052863;28;20078;-48
2022/01/27 02:57:04;;;;;;;56.83;32.75;;;;;;;;;;5052925;28;20021;-48
2022/01/27 02:59:31;;;;;;;60.17;36.67;;;;;;;;;;5052669;28;20025;-49
2022/01/27 03:01:57;;;;;;;69.85;41.10;;;;;;;;;;5052580;28;20029;-56
2022/01/27 03:04:24;;;;;;;55.75;32.47;;;;;;;;;;5051831;28;20124;-48
2022/01/27 03:06:52;;;;;;;59.08;35.30;;;;;;;;;;5052738;28;20028;-49
2022/01/27 03:09:21;;;;;;;61.65;35.40;;;;;;;;;;5052715;28;20021;-49
2022/01/27 03:12:02;;;;;;;56.60;32.90;;;;;;;;;;5052795;28;20033;-50
2022/01/27 03:14:29;;;;;;;;;;;;;;;;;;5052970;28;20166;-49
2022/01/27 03:16:59;;;;;;;55.17;31.65;;;;;;;;;;5052674;28;19909;-49
2022/01/27 03:19:25;;;;;;;50.63;31.10;;;;;;;;;;5052770;28;20025;-49
2022/01/27 03:21:52;;;;;;;55.80;31.98;;;;;;;;;;5052774;28;20017;-49
2022/01/27 03:24:19;;;;;;;72.13;40.53;;;;;;;;;;5052654;28;20427;-50
2022/01/27 03:26:46;;;;;;;64.03;36.72;;;;;;;;;;5052680;28;20071;-49
2022/01/27 03:29:12;;;;;;;69.47;40.03;;;;;;;;;;5052301;28;20045;-49
2022/01/27 03:31:38;;;;;;;65.75;38.30;;;;;;;;;;5052525;28;20036;-49
2022/01/27 03:34:04;;;;;;;72.82;41.70;;;;;;;;;;5052528;28;20469;-48
2022/01/27 03:36:32;;;;;;;60.90;35.60;;;;;;;;;;5052531;28;20044;-49
2022/01/27 03:38:58;;;;;;;68.18;38.20;;;;;;;;;;5052482;28;20408;-48
2022/01/27 03:41:31;;;;;;;77.90;44.50;;;;;;;;;;5056733;28;20029;-49
2022/01/27 03:43:57;;;;;;;64.20;34.85;;;;;;;;;;5056237;28;20033;-48
2022/01/27 03:46:23;;;;;;;55.08;32.85;;;;;;;;;;5056114;28;20083;-49
2022/01/27 03:48:49;;;;;;;55.80;31.50;;;;;;;;;;5056235;28;20029;-48
2022/01/27 03:51:15;;;;;;;49.92;30.02;;;;;;;;;;5056384;28;20017;-49
2022/01/27 03:53:41;;;;;;;54.42;30.80;;;;;;;;;;5056103;28;20418;-49
2022/01/27 03:56:07;;;;;;;46.47;26.88;;;;;;;;;;5056147;28;20033;-48
2022/01/27 03:58:34;;;;;;;61.28;34.17;;;;;;;;;;5055966;28;20497;-48
2022/01/27 04:01:01;;;;;;;61.70;32.88;;;;;;;;;;5056038;28;20117;-48
2022/01/27 04:03:29;;;;;;;55.42;29.90;;;;;;;;;;5056148;28;20099;-49
2022/01/27 04:06:03;;;;;;;65.03;34.85;;;;;;;;;;5055887;28;20484;-48
2022/01/27 04:08:29;;;;;;;54.35;30.05;;;;;;;;;;5055924;28;20036;-48
2022/01/27 04:10:55;;;;;;;66.13;36.92;;;;;;;;;;5055815;28;20025;-49
2022/01/27 04:13:21;;;;;;;59.72;31.25;;;;;;;;;;5055797;28;20082;-48
2022/01/27 04:15:47;;;;;;;55.33;29.83;;;;;;;;;;5055683;28;20072;-48
2022/01/27 04:18:14;;;;;;;67.68;36.10;;;;;;;;;;5055546;28;20025;-49
2022/01/27 04:20:41;;;;;;;60.05;34.70;;;;;;;;;;5055709;28;20043;-48
2022/01/27 04:23:07;;;;;;;60.63;34.58;;;;;;;;;;5055590;28;20079;-49
2022/01/27 04:25:34;;;;;;;55.80;29.67;;;;;;;;;;5055644;28;20025;-49
2022/01/27 04:28:05;;;;;;;56.75;32.08;;;;;;;;;;5055118;28;20048;-48
2022/01/27 04:30:31;;;;;;;59.83;33.90;;;;;;;;;;5055385;28;20041;-49
2022/01/27 04:33:00;;;;;;;66.28;35.33;;;;;;;;;;5055284;28;20634;-48
2022/01/27 04:35:29;;;;;;;68.28;33.97;;;;;;;;;;5054041;28;20389;-49
2022/01/27 04:38:13;;;;;;;65.60;36.30;;;;;;;;;;5055563;28;20017;-49
2022/01/27 04:43:51;;;;;;;67.70;36.25;;;;;;;;;;5013299;28;20529;-49
2022/01/27 04:49:04;;;;;;;58.95;32.72;;;;;;;;;;5013662;28;20505;-49
2022/01/27 04:51:30;;;;;;;63.85;36.10;;;;;;;;;;5012418;28;20030;-48
2022/01/27 04:54:06;;;;;;;67.47;35.90;;;;;;;;;;5013249;28;20076;-48
2022/01/27 04:56:34;;;;;;;67.43;36.47;;;;;;;;;;5013130;28;20038;-48
2022/01/27 04:59:06;;;;;;;64.57;35.38;;;;;;;;;;5012990;28;20030;-49
2022/01/27 05:01:38;;;;;;;58.13;34.03;;;;;;;;;;5012985;28;20042;-48
2022/01/27 05:04:10;;;;;;;55.85;31.88;;;;;;;;;;5013040;28;20538;-50
2022/01/27 05:06:36;;;;;;;78.40;38.30;;;;;;;;;;5012939;28;20034;-48
2022/01/27 05:09:03;;;;;;;76.43;39.00;;;;;;;;;;5012966;28;20030;-49
2022/01/27 05:11:33;;;;;;;87.60;42.58;;;;;;;;;;5012934;28;20044;-48
2022/01/27 05:14:13;;;;;;;89.78;43.90;;;;;;;;;;5012968;28;20404;-49
2022/01/27 05:16:39;;;;;;;76.15;38.75;;;;;;;;;;5012694;28;20379;-48
2022/01/27 05:19:05;;;;;;;89.35;41.42;;;;;;;;;;5017398;28;20108;-49
2022/01/27 05:21:35;;;;;;;87.00;42.58;;;;;;;;;;5054586;28;20025;-49
2022/01/27 05:24:01;;;;;;;93.13;42.40;;;;;;;;;;5054448;28;20071;-49
2022/01/27 05:26:27;;;;;;;94.20;42.63;;;;;;;;;;5054493;28;20024;-49
2022/01/27 05:28:54;;;;;;;98.75;43.42;;;;;;;;;;5053952;28;20114;-48
2022/01/27 05:31:20;;;;;;;92.05;43.88;;;;;;;;;;5054342;28;20037;-49
2022/01/27 05:33:48;;;;;;;93.47;46.20;;;;;;;;;;5054125;28;20025;-48
2022/01/27 05:36:14;;;;;;;95.00;46.72;;;;;;;;;;5054222;28;20037;-48
2022/01/27 05:38:40;;;;;;;104.18;49.78;;;;;;;;;;5054265;28;20017;-50
2022/01/27 05:41:06;;;;;;;99.40;48.53;;;;;;;;;;5054144;28;20479;-48
2022/01/27 05:43:33;;;;;;;86.20;44.72;;;;;;;;;;5053989;28;20492;-48
2022/01/27 05:45:59;;;;;;;88.53;47.88;;;;;;;;;;5054003;28;20094;-48
2022/01/27 05:48:25;;;;;;;89.90;52.05;;;;;;;;;;5053927;28;20021;-49
2022/01/27 05:50:51;;;;;;;91.75;53.80;;;;;;;;;;5053966;28;20013;-49
2022/01/27 05:53:18;;;;;;;87.10;49.15;;;;;;;;;;5053912;28;20458;-48
2022/01/27 05:55:44;;;;;;;80.95;46.60;;;;;;;;;;5053758;28;20033;-48
2022/01/27 05:58:10;;;;;;;90.45;48.33;;;;;;;;;;5053737;28;20079;-49
2022/01/27 06:00:36;;;;;;;86.45;48.72;;;;;;;;;;5053754;28;20033;-49
2022/01/27 06:03:02;;;;;;;96.72;50.55;;;;;;;;;;5053503;28;20021;-48
2022/01/27 06:05:28;;;;;;;89.25;45.05;;;;;;;;;;5053618;28;20035;-49
2022/01/27 06:07:54;;;;;;;141.73;66.63;;;;;;;;;;5053660;28;20107;-48
2022/01/27 06:10:20;;;;;;;209.70;94.18;;;;;;;;;;5053630;28;20031;-49
2022/01/27 06:12:53;;;;;;;204.60;93.57;;;;;;;;;;5053593;28;20017;-49
2022/01/27 06:15:24;;;;;;;195.48;92.80;;;;;;;;;;5053246;28;20086;-48
2022/01/27 06:17:50;;;;;;;149.10;73.82;;;;;;;;;;5053688;28;20358;-48
2022/01/27 06:20:17;;;;;;;101.68;54.85;;;;;;;;;;5053395;28;20025;-49
2022/01/27 06:22:43;;;;;;;94.35;53.53;;;;;;;;;;5053441;28;20021;-48
2022/01/27 06:25:10;;;;;;;90.45;51.42;;;;;;;;;;5053199;28;20021;-50
2022/01/27 06:27:39;;;;;;;94.38;54.42;;;;;;;;;;5053130;28;20025;-49
2022/01/27 06:30:06;;;;;;;81.78;48.38;;;;;;;;;;5053322;28;20043;-48
2022/01/27 06:32:34;;;;;;;74.40;44.35;;;;;;;;;;5053057;28;20131;-49
2022/01/27 06:35:03;;;;;;;57.88;35.55;;;;;;;;;;5053031;28;20059;-50
2022/01/27 06:37:33;;;;;;;54.88;32.75;;;;;;;;;;5051991;28;20401;-48
2022/01/27 06:39:59;;;;;;;56.75;34.22;;;;;;;;;;5053018;28;20045;-49
2022/01/27 06:42:25;;;;;;;63.20;35.35;;;;;;;;;;5053108;28;20469;-50
2022/01/27 06:44:51;;;;;;;66.25;37.42;;;;;;;;;;5053260;28;20078;-50
2022/01/27 06:47:18;;;;;;;69.68;40.15;;;;;;;;;;5052917;28;20075;-48
2022/01/27 06:49:44;;;;;;;70.10;40.65;;;;;;;;;;5053007;28;20071;-48
2022/01/27 06:52:10;;;;;;;67.00;39.03;;;;;;;;;;5052947;28;20025;-49
2022/01/27 06:54:36;;;;;;;65.97;37.67;;;;;;;;;;5052815;28;20112;-50
2022/01/27 06:57:03;;;;;;;84.35;46.17;;;;;;;;;;5052911;28;20534;-50
2022/01/27 06:59:30;;;;;;;88.38;48.00;;;;;;;;;;5052710;28;20032;-50
2022/01/27 07:01:57;;;;;;;89.63;48.58;;;;;;;;;;5052978;28;20499;-49
2022/01/27 07:04:23;;;;;;;92.03;49.22;;;;;;;;;;5052872;28;20108;-49
2022/01/27 07:06:52;;;;;;;135.20;74.00;;;;;;;;;;5052820;28;20032;-49
2022/01/27 07:09:18;;;;;;;113.60;55.83;;;;;;;;;;5052782;28;20110;-49
2022/01/27 07:11:44;;;;;;;102.85;54.25;;;;;;;;;;5051699;28;20143;-50
2022/01/27 07:14:11;;;;;;;79.22;44.45;;;;;;;;;;5052682;28;20162;-50
2022/01/27 07:16:38;;;;;;;96.05;50.78;;;;;;;;;;5056889;28;20397;-49
2022/01/27 07:19:06;;;;;;;127.43;65.10;;;;;;;;;;5056328;28;20025;-50
2022/01/27 07:21:32;;;;;;;132.60;68.38;;;;;;;;;;5056199;28;20489;-49
2022/01/27 07:23:58;;;;;;;108.28;53.53;;;;;;;;;;5056339;28;20053;-50
2022/01/27 07:26:25;;;;;;;100.90;49.55;;;;;;;;;;5056154;28;20021;-48
2022/01/27 07:28:55;;;;;;;95.82;48.97;;;;;;;;;;5055855;28;20044;-50
2022/01/27 07:31:22;;;;;;;88.30;46.85;;;;;;;;;;5053408;28;20037;-48
2022/01/27 07:33:48;;;;;;;78.63;43.97;;;;;;;;;;5056224;28;20071;-49
2022/01/27 07:36:17;;;;;;;86.80;47.53;;;;;;;;;;5056609;28;20443;-48
2022/01/27 07:38:44;;;;;;;99.38;51.15;;;;;;;;;;5056365;28;20028;-48
2022/01/27 07:41:13;;;;;;;96.10;51.95;;;;;;;;;;5056297;28;20025;-45
2022/01/27 07:43:40;;;;;;;113.40;59.17;;;;;;;;;;5055845;28;20043;-47
2022/01/27 07:46:06;;;;;;;107.78;57.78;;;;;;;;;;5055830;28;20033;-49
2022/01/27 07:48:32;;;;;;;125.28;63.78;;;;;;;;;;5055733;28;20027;-50
2022/01/27 07:51:01;;;;;;;128.93;66.82;;;;;;;;;;5055740;28;20029;-50
2022/01/27 07:53:27;;;;;;;170.18;91.63;;;;;;;;;;5055813;28;20021;-48
2022/01/27 07:55:53;;;;;;;165.27;88.80;;;;;;;;;;5055477;28;20090;-50
2022/01/27 07:58:19;;;;;;;140.77;77.55;;;;;;;;;;5055495;28;20092;-50
2022/01/27 08:00:45;;;;;;;144.45;74.88;;;;;;;;;;5055652;28;20029;-49
2022/01/27 08:03:12;;;;;;;168.85;89.07;;;;;;;;;;5055379;28;20025;-50
2022/01/27 08:05:38;;;;;;;103.80;56.67;;;;;;;;;;5055528;28;20021;-50
2022/01/27 08:08:04;;;;;;;78.00;44.30;;;;;;;;;;5055375;28;20373;-50
2022/01/27 08:10:37;;;;;;;67.35;39.90;;;;;;;;;;5055461;28;20033;-50
2022/01/27 08:13:03;;;;;;;64.03;38.67;;;;;;;;;;5055582;28;20021;-49
2022/01/27 08:15:29;;;;;;;60.65;35.20;;;;;;;;;;5055293;28;20037;-50
2022/01/27 08:17:55;;;;;;;55.22;33.38;;;;;;;;;;5055323;28;20100;-50
2022/01/27 08:20:21;;;;;;;54.78;31.98;;;;;;;;;;5055126;28;20025;-50
2022/01/27 08:22:50;;;;;;;73.28;41.35;;;;;;;;;;5055309;28;20029;-50
2022/01/27 08:25:16;;;;;;;78.18;43.72;;;;;;;;;;5052355;28;20401;-50
2022/01/27 08:27:45;;;;;;;90.70;50.33;;;;;;;;;;5053607;28;20036;-48
2022/01/27 08:30:15;;;;;;;86.63;48.05;;;;;;;;;;5055172;28;20044;-49
2022/01/27 08:35:11;;;;;;;59.97;34.38;;;;;;;;;;5055026;28;20040;-48
2022/01/27 08:37:37;;;;;;;64.65;36.05;;;;;;;;;;5054820;28;20049;-48
2022/01/27 08:40:04;;;;;;;57.42;35.17;;;;;;;;;;5054608;28;20027;-51
2022/01/27 08:42:30;;;;;;;64.18;37.25;;;;;;;;;;5054778;28;20100;-49
2022/01/27 08:44:56;;;;;;;63.97;38.13;;;;;;;;;;5054646;28;20032;-51
2022/01/27 08:47:22;;;;;;;72.05;40.42;;;;;;;;;;5053437;28;20051;-49
2022/01/27 08:49:49;;;;;;;64.32;38.70;;;;;;;;;;5054478;28;20041;-52
2022/01/27 08:52:15;;;;;;;62.55;37.97;;;;;;;;;;5054458;28;20031;-51
2022/01/27 08:54:42;;;;;;;55.65;34.10;;;;;;;;;;5054171;28;20033;-52
2022/01/27 08:57:10;;;;;;;43.63;28.40;;;;;;;;;;5054457;28;20075;-50
2022/01/27 08:59:36;;;;;;;45.35;29.45;;;;;;;;;;5054464;28;20021;-51
2022/01/27 09:02:03;;;;;;;38.60;26.08;;;;;;;;;;5054151;28;20108;-51
2022/01/27 09:04:29;;;;;;;42.70;27.10;;;;;;;;;;5054315;28;20025;-52
2022/01/27 09:06:55;;;;;;;33.70;24.50;;;;;;;;;;5054395;28;20017;-53
2022/01/27 09:09:21;;;;;;;38.55;27.42;;;;;;;;;;5054264;28;20461;-52
2022/01/27 09:11:47;;;;;;;40.50;26.65;;;;;;;;;;5054172;28;20071;-50
2022/01/27 09:14:14;;;;;;;34.35;23.67;;;;;;;;;;5054357;28;20017;-51
2022/01/27 09:16:40;;;;;;;59.38;40.10;;;;;;;;;;5054293;28;20044;-52
2022/01/27 09:19:07;;;;;;;29.90;22.65;;;;;;;;;;5054496;28;20020;-51
2022/01/27 09:21:54;;;;;;;57.03;38.10;;;;;;;;;;5054502;28;20024;-51
2022/01/27 09:24:26;;;;;;;49.83;34.85;;;;;;;;;;5053833;28;20025;-49
2022/01/27 09:27:03;;;;;;;50.17;33.63;;;;;;;;;;5053827;28;20053;-51
2022/01/27 09:29:30;;;;;;;50.45;34.13;;;;;;;;;;5053477;28;20037;-51
2022/01/27 09:31:56;;;;;;;34.25;24.42;;;;;;;;;;5053786;28;20473;-50
2022/01/27 09:34:23;;;;;;;69.45;44.38;;;;;;;;;;5053709;28;20378;-52
2022/01/27 09:36:49;;;;;;;61.83;39.13;;;;;;;;;;5053277;28;20086;-51
2022/01/27 09:39:16;;;;;;;37.75;25.33;;;;;;;;;;5053167;28;20017;-51
2022/01/27 09:41:43;;;;;;;39.03;27.75;;;;;;;;;;5053549;28;20024;-50
2022/01/27 09:44:12;;;;;;;48.53;34.28;;;;;;;;;;5053672;28;20389;-51
2022/01/27 09:46:40;;;;;;;44.08;30.50;;;;;;;;;;5051085;28;20053;-50
2022/01/27 09:49:12;;;;;;;41.00;26.27;;;;;;;;;;5053486;28;20165;-50
2022/01/27 09:51:41;;;;;;;54.53;35.42;;;;;;;;;;5051187;28;20045;-49
2022/01/27 09:54:08;;;;;;;52.33;33.38;;;;;;;;;;5053488;28;20021;-51
2022/01/27 09:56:35;;;;;;;56.30;36.47;;;;;;;;;;5053222;28;20385;-48
2022/01/27 09:59:01;;;;;;;37.05;22.20;;;;;;;;;;5053139;28;20012;-50
2022/01/27 10:01:27;;;;;;;109.38;66.75;;;;;;;;;;5053363;28;20610;-48
2022/01/27 10:03:55;;;;;;;97.70;57.25;;;;;;;;;;5053164;28;20032;-48
2022/01/27 10:06:26;;;;;;;78.25;48.45;;;;;;;;;;5053077;28;20432;-48
2022/01/27 10:09:11;;;;;;;64.97;36.35;;;;;;;;;;5053710;28;20099;-46
2022/01/27 10:11:38;;;;;;;80.65;47.92;;;;;;;;;;5053610;28;20025;-47
2022/01/27 10:14:33;;;;;;;83.22;51.00;;;;;;;;;;5053398;28;20043;-48
2022/01/27 10:17:01;;;;;;;44.05;26.92;;;;;;;;;;5031002;28;20140;-48
2022/01/27 10:19:28;;;;;;;67.65;37.72;;;;;;;;;;5031048;28;20079;-49
2022/01/27 10:22:01;;;;;;;50.22;29.67;;;;;;;;;;5030958;28;20489;-48
2022/01/27 10:24:29;;;;;;;49.72;30.33;;;;;;;;;;5030903;28;20474;-48
2022/01/27 10:27:22;;;;;;;38.75;23.90;;;;;;;;;;5030809;28;20038;-47
2022/01/27 10:30:05;;;;;;;26.17;14.00;;;;;;;;;;5029405;28;20053;-47
2022/01/27 10:32:44;;;;;;;46.40;29.40;;;;;;;;;;5031142;28;20028;-48
2022/01/27 10:35:12;;;;;;;42.65;26.50;;;;;;;;;;5030965;28;20037;-49
2022/01/27 10:37:56;;;;;;;22.30;13.77;;;;;;;;;;5031071;28;20026;-47
2022/01/27 10:40:34;;;;;;;48.90;27.48;;;;;;;;;;5031093;28;20043;-46
2022/01/27 10:43:03;;;;;;;23.98;14.27;;;;;;;;;;5031141;28;20504;-47
2022/01/27 10:45:29;;;;;;;21.27;12.73;;;;;;;;;;5031092;28;20155;-49
2022/01/27 10:48:11;;;;;;;22.67;12.63;;;;;;;;;;5031007;28;20034;-48
2022/01/27 10:50:50;;;;;;;24.63;15.00;;;;;;;;;;5030466;28;20032;-48
2022/01/27 10:53:18;;;;;;;25.48;15.00;;;;;;;;;;5036285;28;20043;-48
2022/01/27 10:55:47;;;;;;;22.20;14.05;;;;;;;;;;5052896;28;20056;-48
2022/01/27 10:58:26;;;;;;;23.33;15.00;;;;;;;;;;5051856;28;20056;-48
2022/01/27 11:00:58;;;;;;;24.75;15.30;;;;;;;;;;5052869;28;20032;-48
2022/01/27 11:03:25;;;;;;;26.38;14.70;;;;;;;;;;5052865;28;20082;-48
2022/01/27 11:05:51;;;;;;;30.83;17.00;;;;;;;;;;5052955;28;20021;-48
2022/01/27 11:08:20;;;;;;;32.38;18.08;;;;;;;;;;5052997;28;20374;-50
2022/01/27 11:10:49;;;;;;;34.17;19.08;;;;;;;;;;5052824;28;20116;-47
2022/01/27 11:13:16;;;;;;;39.35;18.70;;;;;;;;;;5052779;28;20025;-47
2022/01/27 11:15:42;;;;;;;37.97;20.85;;;;;;;;;;5052641;28;20122;-47
2022/01/27 11:18:09;;;;;;;51.35;28.45;;;;;;;;;;5052695;28;20090;-48
2022/01/27 11:20:53;;;;;;;29.95;15.77;;;;;;;;;;5052960;28;20124;-47
2022/01/27 11:25:51;;;;;;;33.35;17.40;;;;;;;;;;5052725;28;20058;-48
2022/01/27 11:28:21;;;;;;;31.83;18.92;;;;;;;;;;5052025;28;20485;-50
2022/01/27 11:30:47;;;;;;;32.35;19.55;;;;;;;;;;5051941;28;20030;-47
2022/01/27 11:33:14;;;;;;;26.00;14.10;;;;;;;;;;5052132;28;20053;-47
2022/01/27 11:35:40;;;;;;;29.83;18.73;;;;;;;;;;5049524;28;20028;-48
2022/01/27 11:38:08;;;;;;;26.73;16.73;;;;;;;;;;5052065;28;20443;-47
2022/01/27 11:40:34;;;;;;;32.22;18.58;;;;;;;;;;5051977;28;20482;-48
2022/01/27 11:43:00;;;;;;;43.63;24.80;;;;;;;;;;5051861;28;20025;-47
2022/01/27 11:45:32;;;;;;;31.95;18.77;;;;;;;;;;5052030;28;20078;-47
2022/01/27 11:48:05;;;;;;;28.25;15.45;;;;;;;;;;5025341;28;20026;-46
2022/01/27 11:50:35;;;;;;;22.27;14.32;;;;;;;;;;5017247;28;20305;-46
2022/01/27 11:53:03;;;;;;;24.98;14.60;;;;;;;;;;5016935;28;20029;-46
2022/01/27 11:55:30;;;;;;;25.42;15.70;;;;;;;;;;5017048;28;20320;-46
2022/01/27 11:57:57;;;;;;;25.20;14.52;;;;;;;;;;5016857;28;20561;-45
2022/01/27 12:00:23;;;;;;;30.88;18.55;;;;;;;;;;5017267;28;20029;-47
2022/01/27 12:03:12;;;;;;;29.05;16.88;;;;;;;;;;5020873;28;20539;-47
2022/01/27 12:05:39;;;;;;;34.77;20.47;;;;;;;;;;5021219;28;20025;-47
2022/01/27 12:08:15;;;;;;;33.70;18.33;;;;;;;;;;5021203;28;20021;-46
2022/01/27 12:10:48;;;;;;;27.30;17.00;;;;;;;;;;5020287;28;20032;-46
2022/01/27 12:13:36;;;;;;;25.33;15.07;;;;;;;;;;5021052;28;20051;-49
2022/01/27 12:19:03;;;;;;;41.92;21.17;;;;;;;;;;5019355;28;20037;-47
2022/01/27 12:21:29;;;;;;;35.40;16.85;;;;;;;;;;5019951;28;20025;-47
2022/01/27 12:24:15;;;;;;;42.08;21.40;;;;;;;;;;5019611;28;20126;-46
2022/01/27 12:26:48;;;;;;;28.10;17.00;;;;;;;;;;5019852;28;20815;-46
2022/01/27 12:29:29;;;;;;;30.20;17.27;;;;;;;;;;5019957;28;20156;-46
2022/01/27 12:31:59;;;;;;;34.83;19.30;;;;;;;;;;5019759;28;20398;-50
2022/01/27 12:34:26;;;;;;;32.80;17.90;;;;;;;;;;5020220;28;20731;-48
2022/01/27 12:36:55;;;;;;;31.80;18.08;;;;;;;;;;5019526;28;20678;-48
2022/01/27 12:39:21;;;;;;;30.38;17.38;;;;;;;;;;5019818;28;20016;-46
2022/01/27 12:41:48;;;;;;;32.63;17.25;;;;;;;;;;5019214;28;20033;-45
2022/01/27 12:44:14;;;;;;;33.78;18.55;;;;;;;;;;5019711;28;20051;-48
2022/01/27 12:47:00;;;;;;;33.10;18.65;;;;;;;;;;5019181;28;20488;-48
2022/01/27 12:49:46;;;;;;;33.72;19.15;;;;;;;;;;5019571;28;20163;-45
2022/01/27 12:52:16;;;;;;;32.30;19.17;;;;;;;;;;5018948;28;20119;-46
2022/01/27 12:54:42;;;;;;;31.83;19.30;;;;;;;;;;5018997;28;20056;-49
2022/01/27 12:57:09;;;;;;;31.42;18.90;;;;;;;;;;5019028;28;20153;-44
2022/01/27 12:59:43;;;;;;;29.75;18.77;;;;;;;;;;5019671;28;20416;-47
2022/01/27 13:02:11;;;;;;;38.22;20.20;;;;;;;;;;5019312;28;20022;-47
2022/01/27 13:04:38;;;;;;;46.63;22.90;;;;;;;;;;5019174;28;20025;-45
2022/01/27 13:07:07;;;;;;;36.38;21.05;;;;;;;;;;5018754;28;20021;-46
2022/01/27 13:09:35;;;;;;;36.80;21.13;;;;;;;;;;5018976;28;20126;-45
2022/01/27 13:12:20;;;;;;;52.45;25.02;;;;;;;;;;5018348;28;20033;-45
2022/01/27 13:14:50;;;;;;;52.13;28.50;;;;;;;;;;5019165;28;20056;-44
2022/01/27 13:17:26;;;;;;;45.95;23.77;;;;;;;;;;5018729;28;20491;-44
2022/01/27 13:19:57;;;;;;;45.85;23.33;;;;;;;;;;5018865;28;20059;-45
2022/01/27 13:22:31;;;;;;;;;;;;;;;;;;5019272;28;20695;-44
2022/01/27 13:24:57;;;;;;;38.08;19.85;;;;;;;;;;5018603;28;19913;-45
2022/01/27 13:27:23;;;;;;;55.78;24.52;;;;;;;;;;5018535;28;20030;-45
2022/01/27 13:29:50;;;;;;;49.30;26.50;;;;;;;;;;5018035;28;20030;-46
2022/01/27 13:32:16;;;;;;;48.13;26.63;;;;;;;;;;5018516;28;20025;-46
2022/01/27 13:34:43;;;;;;;57.28;28.45;;;;;;;;;;5018498;28;20029;-46
2022/01/27 13:37:10;;;;;;;64.47;30.35;;;;;;;;;;5018550;28;20045;-46
2022/01/27 13:42:17;;;;;;;75.43;36.22;;;;;;;;;;5018607;28;20103;-46
2022/01/27 13:44:53;;;;;;;50.78;25.58;;;;;;;;;;5018560;28;20017;-47
2022/01/27 13:47:25;;;;;;;200.88;65.88;;;;;;;;;;5018305;28;20106;-48
2022/01/27 13:49:51;;;;;;;233.60;78.78;;;;;;;;;;5017905;28;20595;-46
2022/01/27 13:52:18;;;;;;;201.60;70.85;;;;;;;;;;5018069;28;20052;-46
2022/01/27 13:54:46;;;;;;;214.32;79.75;;;;;;;;;;5018108;28;20324;-45
2022/01/27 13:57:16;;;;;;;236.40;85.95;;;;;;;;;;5017399;28;20519;-45
2022/01/27 13:59:47;;;;;;;197.70;78.65;;;;;;;;;;5018186;28;20380;-46
2022/01/27 14:02:15;;;;;;;125.43;54.03;;;;;;;;;;5018615;28;20407;-45
2022/01/27 14:04:45;;;;;;;128.02;58.22;;;;;;;;;;5017737;28;20063;-45
2022/01/27 14:07:11;;;;;;;99.20;46.92;;;;;;;;;;5017796;28;20021;-46
2022/01/27 14:09:41;;;;;;;108.40;55.95;;;;;;;;;;5018190;28;20645;-46
2022/01/27 14:12:07;;;;;;;86.93;44.00;;;;;;;;;;5017894;28;20469;-46
2022/01/27 14:14:47;;;;;;;82.40;43.55;;;;;;;;;;5017190;28;20382;-45
2022/01/27 14:17:20;;;;;;;69.07;39.85;;;;;;;;;;5017705;28;20037;-46
2022/01/27 14:19:46;;;;;;;51.38;30.52;;;;;;;;;;5017367;28;20124;-46
2022/01/27 14:22:16;;;;;;;56.22;30.80;;;;;;;;;;5017909;28;20114;-46
2022/01/27 14:25:09;;;;;;;51.20;28.23;;;;;;;;;;5017261;28;20029;-46
2022/01/27 14:27:36;;;;;;;50.03;28.67;;;;;;;;;;5017201;28;20032;-46
2022/01/27 14:30:03;;;;;;;53.78;29.38;;;;;;;;;;5017221;28;20025;-46
2022/01/27 14:32:31;;;;;;;57.75;31.30;;;;;;;;;;5017590;28;20025;-46
2022/01/27 14:34:57;;;;;;;54.35;30.33;;;;;;;;;;5017328;28;20116;-46
2022/01/27 14:37:23;;;;;;;48.75;26.95;;;;;;;;;;5017335;28;20029;-46
2022/01/27 14:39:50;;;;;;;63.33;35.63;;;;;;;;;;5017535;28;20022;-47
2022/01/27 14:42:20;;;;;;;87.53;43.90;;;;;;;;;;5018104;28;20464;-45
2022/01/27 14:44:46;;;;;;;70.40;35.90;;;;;;;;;;5017534;28;20024;-45
2022/01/27 14:47:13;;;;;;;66.85;35.75;;;;;;;;;;5017468;28;20274;-45
2022/01/27 14:49:42;;;;;;;63.55;36.45;;;;;;;;;;5017118;28;20394;-45
2022/01/27 14:52:13;;;;;;;77.43;42.03;;;;;;;;;;5017263;28;20029;-45
2022/01/27 14:54:39;;;;;;;110.78;53.13;;;;;;;;;;5017155;28;20036;-45
2022/01/27 14:57:05;;;;;;;88.22;48.15;;;;;;;;;;5017369;28;20157;-45
2022/01/27 14:59:32;;;;;;;99.30;51.08;;;;;;;;;;5017132;28;20489;-46
2022/01/27 15:01:58;;;;;;;101.68;52.20;;;;;;;;;;5017268;28;20381;-45
2022/01/27 15:04:24;;;;;;;131.43;65.00;;;;;;;;;;5016962;28;20281;-45
2022/01/27 15:06:52;;;;;;;146.00;67.95;;;;;;;;;;5017393;28;20029;-45
2022/01/27 15:09:18;;;;;;;123.63;53.17;;;;;;;;;;5017038;28;20486;-45
2022/01/27 15:11:44;;;;;;;125.90;52.83;;;;;;;;;;5016982;28;20021;-46
2022/01/27 15:19:41;;;;;;;145.07;57.78;;;;;;;;;;5017187;28;20142;-46